»·PEaware :: AUZ081 KLAX-KLAS

AUZ081 :: KLAX-KLAS

FLIGHT INFORMATION

Flight Status: Arrived
Operator:
Australian Airlines
More flights by this operator :: More flights under this callsign
Pilot: Kim E. (65)
Aircraft: AÉROSPATIALE ATR-72
(AT72)
More flights by this aircraft type
Origin: KLAX Los Angeles Intl
United States
Destination: KLAS McCarran Intl
United States
More flights between these airports :: More routes between these airports
Route: OSHNN4 DAG KEPEC3
File this flight plan on PilotEdge
Remarks: / V /
Altitude:
(Current/Filed)
21,000ft
Speed:
(Current/Filed)
285kts
Departed: 01-May-13 09:00 AM
Arrived: 01-May-13 10:04 AM
Distance/Time
Traveled:
205nm/1:04
Distance/Time
To Go:
Arrived

Flight Plot

Page will automatically refresh every two minutes.


Map Options




Map Legend


Flown Route
Filed Route
Departure Airport
Arrival Airport
Navaid (VOR, NDB)
Fix

Horizontal Profiles

Position Reports

Time Latitude Longitude Heading Altitude Ground
Speed
01-May-13 07:57 33.940000 -118.408700 0 132ft 0kts
01-May-13 07:58 33.939957 -118.408701 265 132ft 0kts
01-May-13 07:59 33.939957 -118.408701 265 132ft 0kts
01-May-13 08:00 33.939957 -118.408701 265 132ft 0kts
01-May-13 08:01 33.939957 -118.408701 265 132ft 0kts
01-May-13 08:02 33.939957 -118.408701 265 132ft 0kts
01-May-13 08:03 33.939957 -118.408701 265 132ft 0kts
01-May-13 08:04 33.939957 -118.408701 265 132ft 0kts
01-May-13 08:05 33.939957 -118.408701 265 132ft 0kts
01-May-13 08:06 33.939957 -118.408701 265 132ft 0kts
01-May-13 08:07 33.939957 -118.408701 265 132ft 0kts
01-May-13 08:08 33.939957 -118.408701 265 132ft 0kts
01-May-13 08:09 33.939957 -118.408701 265 132ft 0kts
01-May-13 08:10 33.939957 -118.408701 265 132ft 0kts
01-May-13 08:11 33.939957 -118.408701 265 132ft 0kts
01-May-13 08:12 33.939957 -118.408701 265 132ft 0kts
01-May-13 08:13 33.939957 -118.408701 265 132ft 0kts
01-May-13 08:14 33.939957 -118.408701 265 132ft 0kts
01-May-13 08:15 33.939957 -118.408701 265 132ft 0kts
01-May-13 08:16 33.939957 -118.408701 265 132ft 0kts
01-May-13 08:17 33.939957 -118.408701 265 132ft 0kts
01-May-13 08:18 33.939957 -118.408701 265 132ft 0kts
01-May-13 08:19 33.939957 -118.408704 265 132ft 0kts
01-May-13 08:20 33.939957 -118.408706 265 132ft 0kts
01-May-13 08:21 33.939957 -118.408709 265 132ft 0kts
01-May-13 08:22 33.939987 -118.408258 265 132ft 2kts
01-May-13 08:23 33.940002 -118.408034 265 132ft 0kts
01-May-13 08:24 33.940002 -118.408037 265 132ft 0kts
01-May-13 08:25 33.940002 -118.408039 265 132ft 0kts
01-May-13 08:26 33.940002 -118.408042 265 132ft 0kts
01-May-13 08:27 33.940002 -118.408045 265 132ft 0kts
01-May-13 08:28 33.940002 -118.408047 265 132ft 0kts
01-May-13 08:29 33.940001 -118.408050 265 132ft 0kts
01-May-13 08:30 33.940001 -118.408052 265 132ft 0kts
01-May-13 08:31 33.940001 -118.408055 265 132ft 0kts
01-May-13 08:32 33.940001 -118.408057 265 132ft 0kts
01-May-13 08:33 33.940001 -118.408060 265 132ft 0kts
01-May-13 08:34 33.940000 -118.408063 264 132ft 0kts
01-May-13 08:35 33.939885 -118.408117 162 132ft 0kts
01-May-13 08:36 33.939884 -118.408117 162 132ft 0kts
01-May-13 08:37 33.939883 -118.408116 162 132ft 0kts
01-May-13 08:38 33.939881 -118.408115 162 132ft 0kts
01-May-13 08:39 33.939246 -118.407882 163 132ft 12kts
01-May-13 08:40 33.938281 -118.405948 83 132ft 7kts
01-May-13 08:41 33.938412 -118.404565 79 132ft 11kts
01-May-13 08:42 33.938776 -118.400979 85 132ft 0kts
01-May-13 08:43 33.938777 -118.400976 85 132ft 0kts
01-May-13 08:44 33.938777 -118.400973 85 132ft 0kts
01-May-13 08:45 33.938777 -118.400971 85 132ft 0kts
01-May-13 08:46 33.938777 -118.400968 85 132ft 0kts
01-May-13 08:47 33.938777 -118.400965 85 132ft 0kts
01-May-13 08:48 33.938777 -118.400962 85 132ft 0kts
01-May-13 08:49 33.938778 -118.400960 85 132ft 0kts
01-May-13 08:50 33.938778 -118.400957 85 132ft 0kts
01-May-13 08:51 33.938998 -118.398460 83 132ft 6kts
01-May-13 08:52 33.939012 -118.398311 83 132ft 0kts
01-May-13 08:53 33.939015 -118.398279 82 132ft 0kts
01-May-13 08:54 33.939016 -118.398270 82 132ft 0kts
01-May-13 08:55 33.939759 -118.390613 82 132ft 25kts
01-May-13 08:56 33.940602 -118.382649 82 132ft 21kts
01-May-13 08:57 33.940767 -118.381145 83 132ft 7kts
01-May-13 08:58 33.939867 -118.380433 266 132ft 0kts
01-May-13 08:59 33.939867 -118.380440 266 132ft 0kts
01-May-13 09:00 33.937654 -118.400134 258 430ft 125kts
01-May-13 09:01 33.930157 -118.456078 245 1514ft 214kts
01-May-13 09:02 33.887093 -118.516092 229 2617ft 252kts
01-May-13 09:03 33.835985 -118.559609 184 4206ft 243kts
01-May-13 09:04 33.775010 -118.545892 163 5808ft 244kts
01-May-13 09:05 33.708817 -118.525613 152 7436ft 219kts
01-May-13 09:06 33.686212 -118.483517 104 7459ft 142kts
01-May-13 09:07 33.670053 -118.427891 107 8402ft 205kts
01-May-13 09:08 33.649203 -118.358530 108 9451ft 231kts
01-May-13 09:09 33.643138 -118.281581 85 10604ft 234kts
01-May-13 09:10 33.644315 -118.203067 87 11795ft 237kts
01-May-13 09:11 33.681216 -118.144223 35 12997ft 230kts
01-May-13 09:12 33.734397 -118.099893 35 14089ft 233kts
01-May-13 09:13 33.785921 -118.052322 36 15088ft 233kts
01-May-13 09:14 33.834944 -118.008304 36 16032ft 231kts
01-May-13 09:15 33.885752 -117.962247 37 17025ft 227kts
01-May-13 09:16 33.935992 -117.916763 33 18005ft 225kts
01-May-13 09:17 33.985947 -117.871517 37 18992ft 224kts
01-May-13 09:18 34.036258 -117.825336 37 19727ft 233kts
01-May-13 09:19 34.089617 -117.776737 39 20238ft 246kts
01-May-13 09:20 34.136553 -117.715031 46 20755ft 251kts
01-May-13 09:21 34.182455 -117.650990 47 21078ft 258kts
01-May-13 09:22 34.232300 -117.584410 47 21070ft 251kts
01-May-13 09:23 34.270652 -117.531913 44 21003ft 164kts
01-May-13 09:24 34.300275 -117.505904 11 20871ft 176kts
01-May-13 09:25 34.339221 -117.461014 58 21086ft 216kts
01-May-13 09:26 34.371005 -117.390948 49 21071ft 250kts
01-May-13 09:27 34.420539 -117.326768 44 21090ft 270kts
01-May-13 09:28 34.471517 -117.257653 45 21092ft 277kts
01-May-13 09:29 34.522395 -117.187414 45 21091ft 278kts
01-May-13 09:30 34.573603 -117.116736 45 21113ft 278kts
01-May-13 09:31 34.624896 -117.046075 45 21114ft 279kts
01-May-13 09:32 34.673345 -116.979259 44 21097ft 226kts
01-May-13 09:33 34.707417 -116.932488 34 20861ft 168kts
01-May-13 09:34 34.742525 -116.886424 45 20936ft 213kts
01-May-13 09:35 34.784205 -116.826784 44 20927ft 247kts
01-May-13 09:36 34.831445 -116.761756 45 20865ft 266kts
01-May-13 09:37 34.882118 -116.690764 45 20371ft 277kts
01-May-13 09:38 34.930139 -116.623862 45 19971ft 287kts
01-May-13 09:39 34.987682 -116.545655 42 19448ft 325kts
01-May-13 09:40 35.049623 -116.469248 41 18446ft 309kts
01-May-13 09:41 35.109872 -116.394641 42 17446ft 307kts
01-May-13 09:42 35.166158 -116.324196 42 16458ft 256kts
01-May-13 09:43 35.218227 -116.259277 43 15963ft 296kts
01-May-13 09:44 35.277154 -116.185031 43 15462ft 292kts
01-May-13 09:45 35.330592 -116.117365 44 14956ft 266kts
01-May-13 09:46 35.381310 -116.053409 45 14454ft 258kts
01-May-13 09:47 35.431542 -115.990032 46 13944ft 265kts
01-May-13 09:48 35.484159 -115.923860 46 13792ft 268kts
01-May-13 09:49 35.536589 -115.856930 45 13417ft 275kts
01-May-13 09:50 35.590212 -115.789075 44 13038ft 275kts
01-May-13 09:51 35.642245 -115.722761 42 13035ft 280kts
01-May-13 09:52 35.694427 -115.655974 42 13034ft 265kts
01-May-13 09:53 35.750008 -115.599455 40 13031ft 259kts
01-May-13 09:54 35.762011 -115.507709 85 11926ft 292kts
01-May-13 09:55 35.766623 -115.414149 82 10224ft 264kts
01-May-13 09:56 35.771960 -115.326275 82 8524ft 251kts
01-May-13 09:57 35.793691 -115.252548 23 7124ft 226kts
01-May-13 09:58 35.849825 -115.234843 12 7027ft 193kts
01-May-13 09:59 35.903332 -115.220163 12 6295ft 204kts
01-May-13 10:00 35.948131 -115.206756 12 5426ft 155kts
01-May-13 10:01 35.992287 -115.203278 354 4976ft 161kts
01-May-13 10:02 36.037197 -115.196356 23 3887ft 158kts
01-May-13 10:03 36.073645 -115.171730 33 2273ft 124kts
01-May-13 10:04 36.087177 -115.163326 22 2187ft 27kts
01-May-13 10:05 36.089245 -115.163577 225 2187ft 0kts
01-May-13 10:06 36.089366 -115.163825 341 2187ft 8kts
01-May-13 10:07 36.093367 -115.162370 23 2187ft 10kts
01-May-13 10:08 36.095698 -115.164170 209 2187ft 9kts
01-May-13 10:09 36.095654 -115.164197 200 2187ft 0kts

Navigation Log

Ident Type
Flight plan parsing failed, navigation log unavailable